createdAt,value
2019-05-03T00:00:28.749Z,99.99
2019-05-03T00:01:28.737Z,99.99
2019-05-03T00:02:28.718Z,99.99
2019-05-03T00:03:28.695Z,99.99
2019-05-03T00:04:28.705Z,99.99
2019-05-03T00:05:28.660Z,99.99
2019-05-03T00:06:28.639Z,99.99
2019-05-03T00:07:28.620Z,99.99
2019-05-03T00:08:28.601Z,99.99
2019-05-03T00:09:28.582Z,99.99
2019-05-03T00:10:28.587Z,99.99
2019-05-03T00:11:28.558Z,99.99
2019-05-03T00:12:28.521Z,99.99
2019-05-03T00:13:28.502Z,99.99
2019-05-03T00:14:28.485Z,99.99
2019-05-03T00:15:28.468Z,99.99
2019-05-03T00:16:28.473Z,99.99
2019-05-03T00:17:28.433Z,99.99
2019-05-03T00:18:28.411Z,99.99
2019-05-03T00:19:28.394Z,99.99
2019-05-03T00:20:29.194Z,99.99
2019-05-03T00:21:28.379Z,99.99
2019-05-03T00:22:28.335Z,99.99
2019-05-03T00:23:28.317Z,99.99
2019-05-03T00:24:28.300Z,99.99
2019-05-03T00:25:28.280Z,99.99
2019-05-03T00:26:28.281Z,99.99
2019-05-03T00:27:28.248Z,99.99
2019-05-03T00:28:28.218Z,99.99
2019-05-03T00:29:28.218Z,99.99
2019-05-03T00:30:28.182Z,99.99
2019-05-03T00:31:28.186Z,99.99
2019-05-03T00:32:28.145Z,99.99
2019-05-03T00:33:28.127Z,99.99
2019-05-03T00:34:28.109Z,99.99
2019-05-03T00:35:28.088Z,99.99
2019-05-03T00:36:28.079Z,99.99
2019-05-03T00:37:28.071Z,99.99
2019-05-03T00:38:28.035Z,99.99
2019-05-03T00:39:28.009Z,99.99
2019-05-03T00:40:27.995Z,99.99
2019-05-03T00:41:27.975Z,99.99
2019-05-03T00:42:27.974Z,99.99
2019-05-03T00:43:27.939Z,99.99
2019-05-03T00:44:27.923Z,99.99
2019-05-03T00:45:28.705Z,99.99
2019-05-03T00:46:27.892Z,99.99
2019-05-03T00:47:27.884Z,99.99
2019-05-03T00:48:27.843Z,99.99
2019-05-03T00:49:27.826Z,99.99
2019-05-03T00:50:27.821Z,99.99
2019-05-03T00:51:27.792Z,99.99
2019-05-03T00:52:27.764Z,99.99
2019-05-03T00:53:27.779Z,99.99
2019-05-03T00:54:27.727Z,99.99
2019-05-03T00:55:27.713Z,99.99
2019-05-03T00:56:27.688Z,99.99
2019-05-03T00:57:27.670Z,99.99
2019-05-03T00:58:27.651Z,99.99
2019-05-03T00:59:27.653Z,99.99
2019-05-03T01:00:27.614Z,99.99
2019-05-03T01:01:27.600Z,99.99
2019-05-03T01:02:27.576Z,99.99
2019-05-03T01:03:27.560Z,99.99
2019-05-03T01:04:28.209Z,99.99
2019-05-03T01:05:27.537Z,99.99
2019-05-03T01:06:27.500Z,99.99
2019-05-03T01:07:27.485Z,99.99
2019-05-03T01:08:27.459Z,99.99
2019-05-03T01:09:27.444Z,99.99
2019-05-03T01:10:27.427Z,99.99
2019-05-03T01:11:27.427Z,99.99
2019-05-03T01:12:27.398Z,99.99
2019-05-03T01:13:27.365Z,99.99
2019-05-03T01:14:27.351Z,99.99
2019-05-03T01:15:27.333Z,99.99
2019-05-03T01:16:27.318Z,99.99
2019-05-03T01:17:27.314Z,99.99
2019-05-03T01:18:27.276Z,99.99
2019-05-03T01:19:27.258Z,99.99
2019-05-03T01:20:27.237Z,99.99
2019-05-03T01:21:27.230Z,99.99
2019-05-03T01:22:27.199Z,99.99
2019-05-03T01:23:27.192Z,99.99
2019-05-03T01:24:27.162Z,99.99
2019-05-03T01:25:32.179Z,99.99
2019-05-03T01:26:27.129Z,99.99
2019-05-03T01:27:27.122Z,99.99
2019-05-03T01:28:27.089Z,99.99
2019-05-03T01:29:27.060Z,99.99
2019-05-03T01:30:27.051Z,99.99
2019-05-03T01:31:27.027Z,99.99
2019-05-03T01:32:27.016Z,99.99
2019-05-03T01:33:27.006Z,99.99
2019-05-03T01:34:26.986Z,99.99
2019-05-03T01:35:26.949Z,99.99
2019-05-03T01:36:26.951Z,99.99
2019-05-03T01:37:26.914Z,99.99
2019-05-03T01:38:26.892Z,99.99
2019-05-03T01:39:26.889Z,99.99
2019-05-03T01:40:26.856Z,99.99
2019-05-03T01:41:26.846Z,99.99
2019-05-03T01:42:26.823Z,99.99
2019-05-03T01:43:26.802Z,99.99
2019-05-03T01:44:26.810Z,99.99
2019-05-03T01:45:26.764Z,99.99
2019-05-03T01:46:26.743Z,99.99
2019-05-03T01:47:26.726Z,99.99
2019-05-03T01:48:26.702Z,99.99
2019-05-03T01:49:26.715Z,99.99
2019-05-03T01:50:26.668Z,99.99
2019-05-03T01:51:26.653Z,99.99
2019-05-03T01:52:26.642Z,99.99
2019-05-03T01:53:26.618Z,99.99
2019-05-03T01:54:26.596Z,99.99
2019-05-03T01:55:26.591Z,99.99
2019-05-03T01:56:26.550Z,99.99
2019-05-03T01:57:26.535Z,99.99
2019-05-03T01:58:26.515Z,99.99
2019-05-03T01:59:26.502Z,99.99
2019-05-03T02:00:26.479Z,99.99
2019-05-03T02:01:26.473Z,99.99
2019-05-03T02:02:26.459Z,99.99
2019-05-03T02:03:26.433Z,99.99
2019-05-03T02:04:26.398Z,99.99
2019-05-03T02:05:26.383Z,99.99
2019-05-03T02:06:26.370Z,99.99
2019-05-03T02:07:26.352Z,99.99
2019-05-03T02:08:26.341Z,99.99
2019-05-03T02:09:26.304Z,99.99
2019-05-03T02:10:26.288Z,99.99
2019-05-03T02:11:26.274Z,99.99
2019-05-03T02:12:26.241Z,99.99
2019-05-03T02:13:26.233Z,99.99
2019-05-03T02:14:26.225Z,99.99
2019-05-03T02:15:26.192Z,99.99
2019-05-03T02:16:26.171Z,99.99
2019-05-03T02:17:26.153Z,99.99
2019-05-03T02:18:26.149Z,99.99
2019-05-03T02:19:26.128Z,99.99
2019-05-03T02:20:26.089Z,99.99
2019-05-03T02:21:26.076Z,99.99
2019-05-03T02:22:26.060Z,99.99
2019-05-03T02:23:26.039Z,99.99
2019-05-03T02:24:26.017Z,99.99
2019-05-03T02:25:26.018Z,99.99
2019-05-03T02:26:25.979Z,99.99
2019-05-03T02:27:25.965Z,99.99
2019-05-03T02:28:25.938Z,99.99
2019-05-03T02:29:25.924Z,99.99
2019-05-03T02:30:25.903Z,99.99
2019-05-03T02:31:25.900Z,99.99
2019-05-03T02:32:25.865Z,99.99
2019-05-03T02:33:25.850Z,99.99
2019-05-03T02:34:25.823Z,99.99
2019-05-03T02:35:25.803Z,99.99
2019-05-03T02:36:25.809Z,99.99
2019-05-03T02:37:25.786Z,99.99
2019-05-03T02:38:25.751Z,99.99
2019-05-03T02:39:25.740Z,99.99
2019-05-03T02:40:25.718Z,99.99
2019-05-03T02:41:25.693Z,99.99
2019-05-03T02:42:26.550Z,99.99
2019-05-03T02:43:26.280Z,99.99
2019-05-03T02:44:26.701Z,99.99
2019-05-03T02:45:25.960Z,99.99
2019-05-03T02:46:25.672Z,99.99
2019-05-03T02:47:26.567Z,99.99
2019-05-03T02:48:25.755Z,99.99
2019-05-03T02:49:25.986Z,99.99
2019-05-03T02:50:26.139Z,99.99
2019-05-03T02:51:26.233Z,99.99
2019-05-03T02:52:25.629Z,99.99
2019-05-03T02:53:25.972Z,99.99
2019-05-03T02:54:27.001Z,99.99
2019-05-03T02:55:26.302Z,99.99
2019-05-03T02:56:26.217Z,99.99
2019-05-03T02:57:25.825Z,99.99
2019-05-03T02:58:25.571Z,99.99
2019-05-03T02:59:26.448Z,99.99
2019-05-03T03:00:25.659Z,99.99
2019-05-03T03:01:26.400Z,99.99
2019-05-03T03:02:26.372Z,99.99
2019-05-03T03:03:25.565Z,99.99
2019-05-03T03:04:25.948Z,99.99
2019-05-03T03:05:25.391Z,99.99
2019-05-03T03:06:26.817Z,99.99
2019-05-03T03:07:25.915Z,99.99
2019-05-03T03:08:25.286Z,99.99
2019-05-03T03:09:26.017Z,99.99
2019-05-03T03:10:26.464Z,99.99
2019-05-03T03:11:26.073Z,99.99
2019-05-03T03:12:25.736Z,99.99
2019-05-03T03:13:25.385Z,99.99
2019-05-03T03:14:25.716Z,99.99
2019-05-03T03:15:25.667Z,99.99
2019-05-03T03:16:25.262Z,99.99
2019-05-03T03:17:25.572Z,99.99
2019-05-03T03:18:25.630Z,99.99
2019-05-03T03:19:26.183Z,99.99
2019-05-03T03:20:25.458Z,99.99
2019-05-03T03:21:26.069Z,99.99
2019-05-03T03:22:25.977Z,99.99
2019-05-03T03:23:26.276Z,99.99
2019-05-03T03:24:25.913Z,99.99
2019-05-03T03:25:25.810Z,99.99
2019-05-03T03:26:36.417Z,99.99
2019-05-03T03:27:25.581Z,99.99
2019-05-03T03:28:25.379Z,99.99
2019-05-03T03:29:25.488Z,99.99
2019-05-03T03:30:28.996Z,99.99
2019-05-03T03:31:28.488Z,99.99
2019-05-03T03:32:29.035Z,99.99
2019-05-03T03:33:28.076Z,99.99
2019-05-03T03:34:27.861Z,99.99
2019-05-03T03:35:29.214Z,99.99
2019-05-03T03:36:49.642Z,99.99
2019-05-03T03:37:26.011Z,99.99
2019-05-03T03:38:26.048Z,99.99
2019-05-03T03:39:26.054Z,99.99
2019-05-03T03:40:25.444Z,99.99
2019-05-03T03:41:24.951Z,99.99
2019-05-03T03:42:25.166Z,99.99
2019-05-03T03:43:25.989Z,99.99
2019-05-03T03:44:25.580Z,99.99
2019-05-03T03:45:25.357Z,99.99
2019-05-03T03:46:25.134Z,99.99
2019-05-03T03:47:27.347Z,99.99
2019-05-03T03:48:26.610Z,99.99
2019-05-03T03:49:26.290Z,99.99
2019-05-03T03:50:25.906Z,99.99
2019-05-03T03:51:26.290Z,99.99
2019-05-03T03:52:25.513Z,99.99
2019-05-03T03:53:26.380Z,99.99
2019-05-03T03:54:26.076Z,99.99
2019-05-03T03:55:26.501Z,99.99
2019-05-03T03:56:25.557Z,99.99
2019-05-03T03:57:25.229Z,99.99
2019-05-03T03:58:27.124Z,99.99
2019-05-03T03:59:26.581Z,99.99
2019-05-03T04:00:25.841Z,99.99
2019-05-03T04:01:26.604Z,99.99
2019-05-03T04:02:26.405Z,99.99
2019-05-03T04:03:25.992Z,99.99
2019-05-03T04:04:26.107Z,99.99
2019-05-03T04:05:25.410Z,99.99
2019-05-03T04:06:26.646Z,99.99
2019-05-03T04:07:26.170Z,99.99
2019-05-03T04:08:25.197Z,99.99
2019-05-03T04:09:25.597Z,99.99
2019-05-03T04:10:26.149Z,99.99
2019-05-03T04:11:25.938Z,99.99
2019-05-03T04:12:26.666Z,99.99
2019-05-03T04:13:25.528Z,99.99
2019-05-03T04:14:25.430Z,99.99
2019-05-03T04:15:26.124Z,99.99
2019-05-03T04:16:25.939Z,99.99
2019-05-03T04:17:26.174Z,99.99
2019-05-03T04:18:25.569Z,99.99
2019-05-03T04:19:25.147Z,99.99
2019-05-03T04:20:25.618Z,99.99
2019-05-03T04:21:25.535Z,99.99
2019-05-03T04:22:25.424Z,99.99
2019-05-03T04:23:26.076Z,99.99
2019-05-03T04:24:25.882Z,99.99
2019-05-03T04:25:25.888Z,99.99
2019-05-03T04:26:29.450Z,99.99
2019-05-03T04:27:27.293Z,99.99
2019-05-03T04:28:25.528Z,99.99
2019-05-03T04:29:25.438Z,99.99
2019-05-03T04:30:25.751Z,99.99
2019-05-03T04:31:26.130Z,99.99
2019-05-03T04:32:28.439Z,99.99
2019-05-03T04:33:23.505Z,99.99
2019-05-03T04:34:26.159Z,99.99
2019-05-03T04:35:26.230Z,99.99
2019-05-03T04:36:25.973Z,99.99
2019-05-03T04:37:26.298Z,99.99
2019-05-03T04:38:25.804Z,99.99
2019-05-03T04:39:25.580Z,99.99
2019-05-03T04:40:25.824Z,99.99
2019-05-03T04:41:26.617Z,99.99
2019-05-03T04:42:25.406Z,99.99
2019-05-03T04:43:26.128Z,99.99
2019-05-03T04:44:25.854Z,99.99
2019-05-03T04:45:25.597Z,99.99
2019-05-03T04:46:25.503Z,99.99
2019-05-03T04:47:26.060Z,99.99
2019-05-03T04:48:25.288Z,99.99
2019-05-03T04:49:26.056Z,99.99
2019-05-03T04:50:25.389Z,99.99
2019-05-03T04:51:25.575Z,99.99
2019-05-03T04:52:25.766Z,99.99
2019-05-03T04:53:25.800Z,99.99
2019-05-03T04:54:25.266Z,99.99
2019-05-03T04:55:23.079Z,99.99
2019-05-03T04:56:25.179Z,99.99
2019-05-03T04:57:39.261Z,99.99
2019-05-03T04:58:25.680Z,99.99
2019-05-03T04:59:25.290Z,99.99
2019-05-03T05:00:25.580Z,99.99
2019-05-03T05:01:22.977Z,99.99
2019-05-03T05:02:22.946Z,99.99
2019-05-03T05:03:22.946Z,99.99
2019-05-03T05:04:25.242Z,99.99
2019-05-03T05:05:25.722Z,99.99
2019-05-03T05:06:22.864Z,99.99
2019-05-03T05:07:22.849Z,99.99
2019-05-03T05:08:25.274Z,99.99
2019-05-03T05:09:22.824Z,99.99
2019-05-03T05:10:25.683Z,99.99
2019-05-03T05:11:22.764Z,99.99
2019-05-03T05:12:25.255Z,99.99
2019-05-03T05:13:24.931Z,99.99
2019-05-03T05:14:22.736Z,99.99
2019-05-03T05:15:22.687Z,99.99
2019-05-03T05:16:25.005Z,99.99
2019-05-03T05:17:22.663Z,99.99
2019-05-03T05:18:22.634Z,99.99
2019-05-03T05:19:22.605Z,99.99
2019-05-03T05:20:24.701Z,99.99
2019-05-03T05:21:22.570Z,99.99
2019-05-03T05:22:24.585Z,99.99
2019-05-03T05:23:22.531Z,99.99
2019-05-03T05:24:22.505Z,99.99
2019-05-03T05:25:22.486Z,99.99
2019-05-03T05:26:22.483Z,99.99
2019-05-03T05:27:22.451Z,99.99
2019-05-03T05:28:22.443Z,99.99
2019-05-03T05:29:22.413Z,99.99
2019-05-03T05:30:22.399Z,99.99
2019-05-03T05:31:22.400Z,99.99
2019-05-03T05:32:22.349Z,99.99
2019-05-03T05:33:22.333Z,99.99
2019-05-03T05:34:24.451Z,99.99
2019-05-03T05:35:22.295Z,99.99
2019-05-03T05:36:24.292Z,99.99
2019-05-03T05:37:22.282Z,99.99
2019-05-03T05:38:22.237Z,99.99
2019-05-03T05:39:24.008Z,99.99
2019-05-03T05:40:22.200Z,99.99
2019-05-03T05:41:24.365Z,99.99
2019-05-03T05:42:22.161Z,99.99
2019-05-03T05:43:22.161Z,99.99
2019-05-03T05:44:22.117Z,99.99
2019-05-03T05:45:22.120Z,99.99
2019-05-03T05:46:22.085Z,99.99
2019-05-03T05:47:22.064Z,99.99
2019-05-03T05:48:22.046Z,99.99
2019-05-03T05:49:22.020Z,99.99
2019-05-03T05:50:22.002Z,99.99
2019-05-03T05:51:22.000Z,99.99
2019-05-03T05:52:21.964Z,99.99
2019-05-03T05:53:21.948Z,99.99
2019-05-03T05:54:21.929Z,99.99
2019-05-03T05:55:21.908Z,99.99
2019-05-03T05:56:21.911Z,99.99
2019-05-03T05:57:21.872Z,99.99
2019-05-03T05:58:21.858Z,99.99
2019-05-03T05:59:24.664Z,99.99
2019-05-03T06:00:21.812Z,99.99
2019-05-03T06:01:21.802Z,99.99
2019-05-03T06:02:21.804Z,99.99
2019-05-03T06:03:21.782Z,99.99
2019-05-03T06:04:21.739Z,99.99
2019-05-03T06:05:21.716Z,99.99
2019-05-03T06:06:21.694Z,99.99
2019-05-03T06:07:21.684Z,99.99
2019-05-03T06:08:21.668Z,99.99
2019-05-03T06:09:21.659Z,99.99
2019-05-03T06:10:21.620Z,99.99
2019-05-03T06:11:21.622Z,99.99
2019-05-03T06:12:21.610Z,99.99
2019-05-03T06:13:21.565Z,99.99
2019-05-03T06:14:21.572Z,99.99
2019-05-03T06:15:24.354Z,99.99
2019-05-03T06:16:21.513Z,99.99
2019-05-03T06:17:21.488Z,99.99
2019-05-03T06:18:21.465Z,99.99
2019-05-03T06:19:21.473Z,99.99
2019-05-03T06:20:21.431Z,99.99
2019-05-03T06:21:21.412Z,99.99
2019-05-03T06:22:21.391Z,99.99
2019-05-03T06:23:21.378Z,99.99
2019-05-03T06:24:21.362Z,99.99
2019-05-03T06:25:21.349Z,99.99
2019-05-03T06:26:21.319Z,99.99
2019-05-03T06:27:21.300Z,99.99
2019-05-03T06:28:21.287Z,99.99
2019-05-03T06:29:21.258Z,99.99
2019-05-03T06:30:21.257Z,99.99
2019-05-03T06:31:22.784Z,99.99
2019-05-03T06:32:21.201Z,99.99
2019-05-03T06:33:21.186Z,99.99
2019-05-03T06:34:21.159Z,99.99
2019-05-03T06:35:21.175Z,99.99
2019-05-03T06:36:21.126Z,99.99
2019-05-03T06:37:21.108Z,99.65
2019-05-03T06:38:21.087Z,99.65
2019-05-03T06:39:21.088Z,97.36
2019-05-03T06:40:21.062Z,98.32
2019-05-03T06:41:21.049Z,97.46
2019-05-03T06:42:22.866Z,97.46
2019-05-03T06:43:21.003Z,97.94
2019-05-03T06:44:24.748Z,98.51
2019-05-03T06:45:20.959Z,97.36
2019-05-03T06:46:25.356Z,96.89
2019-05-03T06:49:06.514Z,97.46
2019-05-03T06:50:03.217Z,96.89
2019-05-03T06:51:08.790Z,97.36
2019-05-03T06:52:03.194Z,96.89
2019-05-03T06:53:07.290Z,95.98
2019-05-03T06:54:04.957Z,95.61
2019-05-03T06:55:06.406Z,97.51
2019-05-03T06:56:04.515Z,94.46
2019-05-03T06:57:05.736Z,94.46
2019-05-03T06:58:04.972Z,93.79
2019-05-03T06:59:03.048Z,92.27
2019-05-03T07:00:03.027Z,90.84
2019-05-03T07:01:04.655Z,90.26
2019-05-03T07:02:02.992Z,88.74
2019-05-03T07:03:04.803Z,87.60
2019-05-03T07:04:04.970Z,87.88
2019-05-03T07:05:04.973Z,87.79
2019-05-03T07:06:04.540Z,86.16
2019-05-03T07:07:02.899Z,86.74
2019-05-03T07:08:04.780Z,86.65
2019-05-03T07:09:02.883Z,85.88
2019-05-03T07:10:04.924Z,86.36
2019-05-03T07:11:03.398Z,86.55
2019-05-03T07:12:04.482Z,86.74
2019-05-03T07:13:04.749Z,85.69
2019-05-03T07:14:02.774Z,86.11
2019-05-03T07:15:02.753Z,86.88
2019-05-03T07:16:04.540Z,87.07
2019-05-03T07:17:02.718Z,85.78
2019-05-03T07:18:02.697Z,86.02
2019-05-03T07:19:04.456Z,84.26
2019-05-03T07:20:04.600Z,82.92
2019-05-03T07:21:04.707Z,83.69
2019-05-03T07:22:02.630Z,83.69
2019-05-03T07:23:04.266Z,84.55
2019-05-03T07:24:02.639Z,84.59
2019-05-03T07:25:04.577Z,84.01
2019-05-03T07:26:02.614Z,83.83
2019-05-03T07:27:02.593Z,83.83
2019-05-03T07:28:04.307Z,84.11
2019-05-03T07:29:02.527Z,82.59
2019-05-03T07:30:04.867Z,80.11
2019-05-03T07:31:04.641Z,79.63
2019-05-03T07:32:02.502Z,82.11
2019-05-03T07:33:02.469Z,83.44
2019-05-03T07:34:02.419Z,82.40
2019-05-03T07:35:04.418Z,82.20
2019-05-03T07:36:02.383Z,81.82
2019-05-03T07:37:02.357Z,82.11
2019-05-03T07:38:02.341Z,80.96
2019-05-03T07:39:02.337Z,80.96
2019-05-03T07:40:02.297Z,81.35
2019-05-03T07:41:02.278Z,81.25
2019-05-03T07:42:02.263Z,81.15
2019-05-03T07:43:04.418Z,80.30
2019-05-03T07:44:02.233Z,80.20
2019-05-03T07:45:02.222Z,80.77
2019-05-03T07:46:02.188Z,81.35
2019-05-03T07:47:02.174Z,79.15
2019-05-03T07:48:02.158Z,80.30
2019-05-03T07:49:02.144Z,79.25
2019-05-03T07:50:02.139Z,82.11
2019-05-03T07:51:02.100Z,80.92
2019-05-03T07:52:02.089Z,80.35
2019-05-03T07:53:02.073Z,81.30
2019-05-03T07:54:02.055Z,82.26
2019-05-03T07:55:02.023Z,81.78
2019-05-03T07:56:02.036Z,82.49
2019-05-03T07:57:01.999Z,80.77
2019-05-03T07:58:01.976Z,81.35
2019-05-03T07:59:04.179Z,80.77
2019-05-03T08:00:01.935Z,81.25
2019-05-03T08:01:08.713Z,81.73
2019-05-03T08:02:01.935Z,80.39
2019-05-03T08:03:01.883Z,80.16
2019-05-03T08:04:01.862Z,81.25
2019-05-03T08:05:01.855Z,81.21
2019-05-03T08:06:01.826Z,81.02
2019-05-03T08:07:01.806Z,81.30
2019-05-03T08:08:01.802Z,79.88
2019-05-03T08:09:01.769Z,81.30
2019-05-03T08:10:01.782Z,82.17
2019-05-03T08:11:01.737Z,82.35
2019-05-03T08:12:01.723Z,81.40
2019-05-03T08:13:01.718Z,80.92
2019-05-03T08:14:01.679Z,81.44
2019-05-03T08:15:01.662Z,81.35
2019-05-03T08:16:01.654Z,80.07
2019-05-03T08:17:01.628Z,79.49
2019-05-03T08:18:01.608Z,78.06
2019-05-03T08:19:01.641Z,79.63
2019-05-03T08:20:01.580Z,78.67
2019-05-03T08:21:01.566Z,78.39
2019-05-03T08:22:01.532Z,78.16
2019-05-03T08:23:05.113Z,78.01
2019-05-03T08:24:01.527Z,78.39
2019-05-03T08:25:01.482Z,79.06
2019-05-03T08:26:01.469Z,78.49
2019-05-03T08:27:01.445Z,78.49
2019-05-03T08:28:01.428Z,79.06
2019-05-03T08:29:14.800Z,78.49
2019-05-03T08:30:01.415Z,78.49
2019-05-03T08:31:01.381Z,78.73
2019-05-03T08:32:01.355Z,78.49
2019-05-03T08:33:01.338Z,79.25
2019-05-03T08:34:01.322Z,80.58
2019-05-03T08:35:01.302Z,78.86
2019-05-03T08:36:01.301Z,79.15
2019-05-03T08:37:01.273Z,79.06
2019-05-03T08:38:01.248Z,79.63
2019-05-03T08:39:01.288Z,79.57
2019-05-03T08:40:01.867Z,79.77
2019-05-03T08:41:01.189Z,79.00
2019-05-03T08:42:01.175Z,77.51
2019-05-03T08:43:01.305Z,76.84
2019-05-03T08:44:01.142Z,75.09
2019-05-03T08:45:01.135Z,77.00
2019-05-03T08:46:01.101Z,78.33
2019-05-03T08:47:01.089Z,77.47
2019-05-03T08:48:01.065Z,78.05
2019-05-03T08:49:01.198Z,77.86
2019-05-03T08:50:01.048Z,78.20
2019-05-03T08:51:01.019Z,78.20
2019-05-03T08:52:00.996Z,78.96
2019-05-03T08:53:00.978Z,79.11
2019-05-03T08:54:00.975Z,79.78
2019-05-03T08:55:00.946Z,80.16
2019-05-03T08:56:00.920Z,79.21
2019-05-03T08:57:00.934Z,80.07
2019-05-03T08:58:00.890Z,80.87
2019-05-03T08:59:00.867Z,80.58
2019-05-03T09:00:00.860Z,79.25
2019-05-03T09:01:00.833Z,78.33
2019-05-03T09:02:03.658Z,75.76
2019-05-03T09:03:00.824Z,76.14
2019-05-03T09:04:00.778Z,78.09
2019-05-03T09:05:00.758Z,78.47
2019-05-03T09:06:00.743Z,76.60
2019-05-03T09:07:00.723Z,75.35
2019-05-03T09:08:00.717Z,75.39
2019-05-03T09:09:00.693Z,75.30
2019-05-03T09:10:00.673Z,73.39
2019-05-03T09:11:00.674Z,73.39
2019-05-03T09:12:00.643Z,73.29
2019-05-03T09:13:03.446Z,74.02
2019-05-03T09:14:00.603Z,74.49
2019-05-03T09:15:00.595Z,74.27
2019-05-03T09:16:00.613Z,74.74
2019-05-03T09:17:00.567Z,75.22
2019-05-03T09:18:00.526Z,74.84
2019-05-03T09:19:00.586Z,74.52
2019-05-03T09:20:00.494Z,74.46
2019-05-03T09:21:00.494Z,74.93
2019-05-03T09:22:00.464Z,74.27
2019-05-03T09:23:00.455Z,74.27
2019-05-03T09:24:00.433Z,74.84
2019-05-03T09:25:00.427Z,75.51
2019-05-03T09:26:00.387Z,76.08
2019-05-03T09:27:00.375Z,76.08
2019-05-03T09:28:00.354Z,75.60
2019-05-03T09:29:00.340Z,76.56
2019-05-03T09:30:00.338Z,74.65
2019-05-03T09:31:00.323Z,74.61
2019-05-03T09:32:00.285Z,74.42
2019-05-03T09:33:00.273Z,74.84
2019-05-03T09:34:00.253Z,75.51
2019-05-03T09:35:00.238Z,74.65
2019-05-03T09:36:00.247Z,74.93
2019-05-03T09:37:00.200Z,74.78
2019-05-03T09:38:00.183Z,72.05
2019-05-03T09:39:00.167Z,72.43
2019-05-03T09:40:00.150Z,70.07
2019-05-03T09:41:00.134Z,69.21
2019-05-03T09:42:00.132Z,68.96
2019-05-03T09:43:00.100Z,69.82
2019-05-03T09:44:00.084Z,70.11
2019-05-03T09:45:00.067Z,68.23
2019-05-03T09:46:00.069Z,65.71
2019-05-03T09:47:00.060Z,66.28
2019-05-03T09:48:00.024Z,63.99
2019-05-03T09:49:12.603Z,62.90
2019-05-03T09:50:02.107Z,63.57
2019-05-03T09:50:59.977Z,65.90
2019-05-03T09:51:59.995Z,66.86
2019-05-03T09:52:59.970Z,65.01
2019-05-03T09:53:59.938Z,64.69
2019-05-03T09:54:59.917Z,65.55
2019-05-03T09:55:59.902Z,64.50
2019-05-03T09:56:59.890Z,64.37
2019-05-03T09:57:59.886Z,65.04
2019-05-03T09:58:59.879Z,66.00
2019-05-03T10:00:00.264Z,66.44
2019-05-03T10:00:59.827Z,67.52
2019-05-03T10:01:59.844Z,67.68
2019-05-03T10:02:59.802Z,66.72
2019-05-03T10:04:00.356Z,66.09
2019-05-03T10:04:59.766Z,67.65
2019-05-03T10:05:59.750Z,64.31
2019-05-03T10:06:59.729Z,63.29
2019-05-03T10:07:59.729Z,64.18
2019-05-03T10:08:59.704Z,63.76
2019-05-03T10:09:59.680Z,60.90
2019-05-03T10:10:59.666Z,61.63
2019-05-03T10:11:59.650Z,63.83
2019-05-03T10:12:59.646Z,63.54
2019-05-03T10:13:59.634Z,64.31
2019-05-03T10:14:59.601Z,63.64
2019-05-03T10:15:59.583Z,64.18
2019-05-03T10:16:59.569Z,64.37
2019-05-03T10:17:59.549Z,64.09
2019-05-03T10:18:59.548Z,65.61
2019-05-03T10:19:59.520Z,66.19
2019-05-03T10:20:59.506Z,66.47
2019-05-03T10:21:59.487Z,67.91
2019-05-03T10:22:59.485Z,66.72
2019-05-03T10:23:59.469Z,66.63
2019-05-03T10:24:59.451Z,67.68
2019-05-03T10:25:59.424Z,67.43
2019-05-03T10:26:59.399Z,67.43
2019-05-03T10:27:59.387Z,68.67
2019-05-03T10:28:59.365Z,66.79
2019-05-03T10:30:10.516Z,66.60
2019-05-03T10:30:59.356Z,66.79
2019-05-03T10:31:59.322Z,67.27
2019-05-03T10:32:59.309Z,66.79
2019-05-03T10:33:59.283Z,66.03
2019-05-03T10:34:59.274Z,66.38
2019-05-03T10:35:59.272Z,65.42
2019-05-03T10:36:59.237Z,66.00
2019-05-03T10:37:59.224Z,65.80
2019-05-03T10:38:59.204Z,66.95
2019-05-03T10:39:59.187Z,67.27
2019-05-03T10:40:59.170Z,65.74
2019-05-03T10:41:59.181Z,63.93
2019-05-03T10:42:59.137Z,64.15
2019-05-03T10:43:59.117Z,64.25
2019-05-03T10:44:59.105Z,64.02
2019-05-03T10:45:59.095Z,63.54
2019-05-03T10:46:59.091Z,63.54
2019-05-03T10:47:59.081Z,66.03
2019-05-03T10:48:59.050Z,64.98
2019-05-03T10:49:59.016Z,63.54
2019-05-03T10:50:59.013Z,64.18
2019-05-03T10:51:58.987Z,64.59
2019-05-03T10:52:59.011Z,65.55
2019-05-03T10:53:58.955Z,66.50
2019-05-03T10:54:58.939Z,65.74
2019-05-03T10:55:58.922Z,65.45
2019-05-03T10:56:58.912Z,65.17
2019-05-03T10:57:58.886Z,64.47
2019-05-03T10:58:58.888Z,66.00
2019-05-03T10:59:58.855Z,65.33
2019-05-03T11:00:58.839Z,65.90
2019-05-03T11:01:58.820Z,64.65
2019-05-03T11:02:58.804Z,65.33
2019-05-03T11:03:58.814Z,66.47
2019-05-03T11:04:58.776Z,64.85
2019-05-03T11:05:58.753Z,63.99
2019-05-03T11:06:58.749Z,64.47
2019-05-03T11:07:58.723Z,64.18
2019-05-03T11:08:58.722Z,63.23
2019-05-03T11:09:58.684Z,63.70
2019-05-03T11:10:58.665Z,64.75
2019-05-03T11:11:58.657Z,64.09
2019-05-03T11:12:58.635Z,63.89
2019-05-03T11:13:58.616Z,63.89
2019-05-03T11:14:58.616Z,62.18
2019-05-03T11:15:58.582Z,64.12
2019-05-03T11:17:00.533Z,64.22
2019-05-03T11:17:58.550Z,64.69
2019-05-03T11:18:58.534Z,64.56
2019-05-03T11:19:58.545Z,64.22
2019-05-03T11:20:58.517Z,63.29
2019-05-03T11:21:58.483Z,63.48
2019-05-03T11:22:58.469Z,63.10
2019-05-03T11:23:58.449Z,62.04
2019-05-03T11:24:58.429Z,63.29
2019-05-03T11:25:58.416Z,62.14
2019-05-03T11:27:00.171Z,61.28
2019-05-03T11:27:58.388Z,61.47
2019-05-03T11:29:00.567Z,60.39
2019-05-03T11:29:59.266Z,59.91
2019-05-03T11:31:02.236Z,59.72
2019-05-03T11:31:58.340Z,61.63
2019-05-03T11:32:58.310Z,60.99
2019-05-03T11:33:58.283Z,60.68
2019-05-03T11:34:58.265Z,60.10
2019-05-03T11:35:58.247Z,60.77
2019-05-03T11:36:58.223Z,61.16
2019-05-03T11:37:58.229Z,61.72
2019-05-03T11:38:58.215Z,62.81
2019-05-03T11:39:58.173Z,61.88
2019-05-03T11:40:58.165Z,61.91
2019-05-03T11:41:58.141Z,60.32
2019-05-03T11:42:58.130Z,59.08
2019-05-03T11:43:58.116Z,58.53
2019-05-03T11:44:58.120Z,57.09
2019-05-03T11:45:58.080Z,55.85
2019-05-03T11:46:58.065Z,55.87
2019-05-03T11:47:58.051Z,56.83
2019-05-03T11:48:58.049Z,55.87
2019-05-03T11:49:58.020Z,53.83
2019-05-03T11:50:58.027Z,54.24
2019-05-03T11:51:58.033Z,55.40
2019-05-03T11:52:58.011Z,54.91
2019-05-03T11:53:58.006Z,56.07
2019-05-03T11:54:57.996Z,56.04
2019-05-03T11:55:57.952Z,55.75
2019-05-03T11:56:57.947Z,56.81
2019-05-03T11:59:39.812Z,56.64
2019-05-03T12:00:39.813Z,54.12
2019-05-03T12:01:39.782Z,52.20
2019-05-03T12:02:39.769Z,52.30
2019-05-03T12:03:39.745Z,53.28
2019-05-03T12:04:39.733Z,50.70
2019-05-03T12:05:39.716Z,51.65
2019-05-03T12:06:39.723Z,53.22
2019-05-03T12:07:40.352Z,52.19
2019-05-03T12:08:39.667Z,50.37
2019-05-03T12:09:39.653Z,49.76
2019-05-03T12:10:52.369Z,49.86
2019-05-03T12:11:39.624Z,52.04
2019-05-03T12:12:39.616Z,52.14
2019-05-03T12:13:39.592Z,52.87
2019-05-03T12:14:39.581Z,54.24
2019-05-03T12:15:39.582Z,52.42
2019-05-03T12:17:12.361Z,52.33
2019-05-03T12:17:51.055Z,51.63
2019-05-03T12:18:52.134Z,54.12
2019-05-03T12:19:40.664Z,55.08
2019-05-03T12:20:40.757Z,54.19
2019-05-03T12:21:39.993Z,55.22
2019-05-03T12:22:40.154Z,56.56
2019-05-03T12:23:39.994Z,55.79
2019-05-03T12:24:39.979Z,57.61
2019-05-03T12:25:40.039Z,58.09
2019-05-03T12:26:43.815Z,57.26
2019-05-03T12:27:39.394Z,58.46
2019-05-03T12:28:39.369Z,55.68
2019-05-03T12:29:39.347Z,54.63
2019-05-03T12:30:39.328Z,54.15
2019-05-03T12:31:40.645Z,54.89
2019-05-03T12:32:39.320Z,54.53
2019-05-03T12:33:39.322Z,55.21
2019-05-03T12:34:39.286Z,53.07
2019-05-03T12:35:39.257Z,52.69
2019-05-03T12:36:39.334Z,53.74
2019-05-03T12:37:39.221Z,52.59
2019-05-03T12:38:39.226Z,53.07
2019-05-03T12:39:39.215Z,51.99
2019-05-03T12:40:39.176Z,53.04
2019-05-03T12:41:39.173Z,53.11
2019-05-03T12:42:39.934Z,53.49
2019-05-03T12:43:39.886Z,53.20
2019-05-03T12:44:39.116Z,54.83
2019-05-03T12:45:39.103Z,55.53
2019-05-03T12:46:39.097Z,54.77
2019-05-03T12:47:39.079Z,55.24
2019-05-03T12:48:39.064Z,55.85
2019-05-03T12:49:39.119Z,55.91
2019-05-03T12:50:39.210Z,54.38
2019-05-03T12:51:39.007Z,53.11
2019-05-03T12:52:49.611Z,53.69
2019-05-03T12:53:38.978Z,54.64
2019-05-03T12:54:38.975Z,53.56
2019-05-03T12:55:38.962Z,54.43